createdAt,value
2018-03-27T00:00:59.823Z,78.13
2018-03-27T00:03:26.452Z,77.94
2018-03-27T00:05:53.246Z,77.30
2018-03-27T00:08:20.179Z,77.36
2018-03-27T00:10:46.782Z,77.24
2018-03-27T00:13:13.614Z,77.13
2018-03-27T00:15:40.171Z,77.15
2018-03-27T00:18:07.061Z,77.25
2018-03-27T00:20:33.738Z,78.74
2018-03-27T00:23:00.302Z,79.20
2018-03-27T00:25:27.052Z,78.15
2018-03-27T00:28:06.186Z,77.50
2018-03-27T00:30:50.980Z,76.97
2018-03-27T00:33:35.796Z,76.81
2018-03-27T00:36:20.657Z,76.65
2018-03-27T00:39:05.964Z,77.88
2018-03-27T00:44:50.810Z,78.02
2018-03-27T00:47:17.355Z,78.15
2018-03-27T00:49:44.009Z,78.06
2018-03-27T00:52:11.024Z,78.07
2018-03-27T00:54:37.989Z,79.01
2018-03-27T00:57:04.846Z,78.53
2018-03-27T00:59:31.438Z,78.26
2018-03-27T01:01:57.982Z,78.17
2018-03-27T01:04:24.570Z,77.93
2018-03-27T01:06:52.142Z,77.09
2018-03-27T01:09:18.818Z,76.63
2018-03-27T01:11:45.430Z,76.37
2018-03-27T01:14:12.720Z,76.02
2018-03-27T01:16:39.744Z,76.16
2018-03-27T01:19:06.480Z,75.82
2018-03-27T01:21:33.374Z,75.51
2018-03-27T01:24:00.438Z,75.81
2018-03-27T01:26:27.276Z,75.48
2018-03-27T01:28:54.058Z,75.39
2018-03-27T01:31:20.592Z,75.04
2018-03-27T01:33:47.374Z,75.17
2018-03-27T01:36:14.668Z,75.08
2018-03-27T01:38:41.971Z,74.86
2018-03-27T01:41:08.956Z,75.04
2018-03-27T01:43:35.869Z,75.15
2018-03-27T01:46:02.701Z,75.04
2018-03-27T01:48:29.844Z,74.88
2018-03-27T01:50:57.063Z,74.98
2018-03-27T01:53:24.526Z,76.02
2018-03-27T01:55:52.394Z,76.04
2018-03-27T01:58:19.906Z,75.64
2018-03-27T02:00:46.901Z,75.76
2018-03-27T02:03:13.446Z,76.09
2018-03-27T02:05:40.392Z,75.75
2018-03-27T02:08:07.526Z,75.61
2018-03-27T02:10:34.565Z,75.69
2018-03-27T02:13:07.639Z,75.55
2018-03-27T02:15:40.369Z,75.00
2018-03-27T02:18:13.616Z,76.18
2018-03-27T02:20:46.311Z,77.62
2018-03-27T02:23:22.782Z,76.33
2018-03-27T02:25:50.183Z,76.52
2018-03-27T02:28:17.037Z,76.98
2018-03-27T02:30:51.069Z,78.57
2018-03-27T02:33:18.081Z,79.11
2018-03-27T02:35:45.519Z,81.16
2018-03-27T02:38:12.413Z,80.77
2018-03-27T02:40:39.386Z,81.24
2018-03-27T02:43:06.153Z,79.64
2018-03-27T02:45:32.629Z,78.20
2018-03-27T02:47:59.286Z,78.70
2018-03-27T02:50:25.890Z,77.58
2018-03-27T02:52:53.338Z,76.87
2018-03-27T02:55:19.989Z,77.13
2018-03-27T02:57:46.786Z,77.60
2018-03-27T03:00:14.129Z,77.55
2018-03-27T03:02:40.893Z,77.87
2018-03-27T03:05:07.625Z,80.12
2018-03-27T03:07:34.329Z,81.37
2018-03-27T03:10:01.751Z,81.71
2018-03-27T03:12:29.146Z,80.84
2018-03-27T03:14:55.881Z,78.79
2018-03-27T03:17:22.893Z,78.11
2018-03-27T03:19:49.889Z,77.08
2018-03-27T03:22:16.754Z,77.02
2018-03-27T03:24:44.156Z,77.57
2018-03-27T03:27:11.328Z,77.15
2018-03-27T03:29:38.201Z,77.56
2018-03-27T03:32:05.321Z,78.07
2018-03-27T03:34:32.095Z,77.22
2018-03-27T03:36:59.018Z,77.33
2018-03-27T03:39:26.033Z,78.21
2018-03-27T03:41:52.785Z,78.73
2018-03-27T03:44:19.490Z,79.53
2018-03-27T03:46:46.288Z,78.24
2018-03-27T03:49:12.958Z,77.22
2018-03-27T03:51:39.691Z,78.09
2018-03-27T03:54:06.480Z,77.11
2018-03-27T03:56:34.046Z,78.04
2018-03-27T03:59:00.841Z,77.32
2018-03-27T04:01:27.928Z,81.03
2018-03-27T04:03:55.076Z,79.58
2018-03-27T04:06:22.187Z,78.15
2018-03-27T04:08:49.865Z,80.10
2018-03-27T04:11:17.003Z,80.35
2018-03-27T04:13:43.811Z,79.20
2018-03-27T04:16:10.831Z,77.72
2018-03-27T04:18:37.848Z,77.73
2018-03-27T04:21:04.499Z,77.05
2018-03-27T04:23:31.294Z,76.25
2018-03-27T04:25:57.875Z,75.60
2018-03-27T04:28:24.762Z,77.51
2018-03-27T04:30:51.358Z,76.29
2018-03-27T04:33:18.606Z,77.72
2018-03-27T04:35:45.262Z,77.93
2018-03-27T04:38:12.112Z,76.95
2018-03-27T04:40:38.790Z,77.50
2018-03-27T04:43:05.370Z,79.50
2018-03-27T04:45:31.829Z,79.40
2018-03-27T04:47:58.659Z,78.33
2018-03-27T04:50:25.172Z,79.80
2018-03-27T04:52:51.850Z,80.30
2018-03-27T04:55:18.358Z,80.01
2018-03-27T04:57:45.310Z,80.84
2018-03-27T05:00:12.411Z,80.41
2018-03-27T05:02:39.504Z,80.48
2018-03-27T05:05:06.446Z,81.77
2018-03-27T05:07:33.503Z,81.15
2018-03-27T05:10:00.328Z,81.25
2018-03-27T05:12:27.138Z,81.18
2018-03-27T05:14:54.003Z,80.16
2018-03-27T05:17:21.453Z,79.81
2018-03-27T05:19:48.199Z,80.34
2018-03-27T05:22:15.638Z,78.34
2018-03-27T05:24:42.736Z,77.81
2018-03-27T05:27:09.345Z,78.87
2018-03-27T05:29:36.183Z,80.58
2018-03-27T05:32:03.329Z,80.34
2018-03-27T05:34:29.972Z,79.67
2018-03-27T05:36:56.573Z,78.96
2018-03-27T05:39:23.782Z,78.34
2018-03-27T05:41:50.822Z,79.72
2018-03-27T05:44:17.979Z,78.42
2018-03-27T05:46:44.769Z,76.65
2018-03-27T05:49:11.410Z,78.39
2018-03-27T05:51:38.042Z,77.80
2018-03-27T05:54:04.630Z,76.81
2018-03-27T05:56:31.824Z,75.31
2018-03-27T05:58:58.669Z,75.04
2018-03-27T06:01:25.146Z,74.29
2018-03-27T06:03:51.728Z,74.42
2018-03-27T06:06:18.873Z,76.36
2018-03-27T06:08:46.072Z,75.95
2018-03-27T06:11:12.630Z,75.98
2018-03-27T06:13:39.393Z,75.24
2018-03-27T06:16:06.629Z,75.49
2018-03-27T06:18:33.651Z,75.96
2018-03-27T06:21:00.267Z,75.89
2018-03-27T06:23:27.458Z,76.79
2018-03-27T06:25:54.570Z,77.22
2018-03-27T06:28:21.745Z,77.14
2018-03-27T06:30:48.648Z,77.54
2018-03-27T06:33:15.255Z,75.80
2018-03-27T06:35:41.794Z,74.92
2018-03-27T06:38:08.304Z,74.03
2018-03-27T06:40:34.829Z,73.58
2018-03-27T06:43:01.338Z,74.41
2018-03-27T06:45:28.152Z,75.20
2018-03-27T06:47:55.110Z,75.03
2018-03-27T06:50:21.983Z,75.86
2018-03-27T06:52:48.795Z,76.04
2018-03-27T06:55:16.514Z,76.73
2018-03-27T06:57:43.474Z,76.92
2018-03-27T07:00:10.603Z,77.65
2018-03-27T07:02:37.435Z,77.49
2018-03-27T07:05:04.271Z,78.62
2018-03-27T07:07:31.095Z,78.32
2018-03-27T07:09:57.647Z,76.82
2018-03-27T07:12:24.236Z,76.09
2018-03-27T07:14:51.048Z,76.29
2018-03-27T07:17:17.858Z,76.02
2018-03-27T07:19:44.420Z,77.41
2018-03-27T07:22:11.197Z,77.94
2018-03-27T07:24:37.885Z,78.16
2018-03-27T07:27:04.525Z,78.61
2018-03-27T07:29:31.244Z,78.83
2018-03-27T07:31:57.867Z,78.73
2018-03-27T07:34:24.484Z,79.87
2018-03-27T07:36:51.180Z,79.37
2018-03-27T07:39:17.823Z,77.52
2018-03-27T07:41:45.055Z,77.68
2018-03-27T07:44:12.042Z,78.19
2018-03-27T07:46:38.790Z,77.81
2018-03-27T07:49:05.346Z,78.05
2018-03-27T07:51:32.178Z,78.51
2018-03-27T07:53:59.076Z,79.99
2018-03-27T07:56:25.650Z,78.59
2018-03-27T07:58:52.698Z,76.55
2018-03-27T08:01:19.912Z,75.04
2018-03-27T08:03:46.611Z,78.61
2018-03-27T08:08:47.059Z,77.64
2018-03-27T08:11:14.263Z,77.86
2018-03-27T08:13:40.911Z,75.50
2018-03-27T08:16:08.002Z,76.51
2018-03-27T08:18:34.986Z,77.73
2018-03-27T08:21:02.122Z,76.58
2018-03-27T08:23:28.982Z,76.88
2018-03-27T08:25:55.781Z,77.87
2018-03-27T08:28:22.619Z,76.61
2018-03-27T08:30:49.360Z,74.95
2018-03-27T08:33:16.537Z,74.58
2018-03-27T08:35:43.388Z,75.76
2018-03-27T08:38:10.345Z,75.68
2018-03-27T08:40:37.179Z,77.13
2018-03-27T08:43:03.932Z,77.30
2018-03-27T08:45:30.504Z,75.21
2018-03-27T08:47:57.382Z,73.04
2018-03-27T08:50:24.373Z,75.57
2018-03-27T08:52:51.055Z,74.06
2018-03-27T08:55:18.469Z,74.75
2018-03-27T08:57:45.061Z,74.95
2018-03-27T09:00:11.726Z,75.04
2018-03-27T09:02:38.482Z,74.62
2018-03-27T09:05:05.239Z,74.27
2018-03-27T09:07:32.010Z,73.81
2018-03-27T09:09:58.895Z,73.07
2018-03-27T09:12:25.690Z,70.97
2018-03-27T09:14:52.414Z,70.70
2018-03-27T09:17:19.065Z,70.01
2018-03-27T09:19:45.752Z,69.50
2018-03-27T09:22:12.506Z,68.15
2018-03-27T09:24:39.103Z,67.30
2018-03-27T09:27:05.859Z,67.63
2018-03-27T09:29:32.538Z,70.31
2018-03-27T09:31:59.109Z,71.23
2018-03-27T09:34:26.058Z,71.79
2018-03-27T09:36:53.031Z,71.12
2018-03-27T09:39:20.081Z,70.20
2018-03-27T09:41:46.970Z,69.79
2018-03-27T09:44:13.483Z,68.64
2018-03-27T09:46:40.153Z,68.28
2018-03-27T09:49:07.130Z,67.59
2018-03-27T09:51:34.391Z,68.37
2018-03-27T09:54:01.366Z,68.21
2018-03-27T09:56:28.061Z,66.84
2018-03-27T09:58:54.899Z,71.00
2018-03-27T10:01:27.491Z,70.61
2018-03-27T10:03:54.373Z,70.14
2018-03-27T10:06:20.989Z,68.79
2018-03-27T10:08:47.789Z,70.18
2018-03-27T10:11:15.966Z,68.81
2018-03-27T10:13:43.103Z,68.11
2018-03-27T10:16:10.359Z,68.44
2018-03-27T10:18:37.330Z,67.71
2018-03-27T10:21:04.083Z,67.59
2018-03-27T10:23:30.743Z,67.12
2018-03-27T10:25:57.761Z,67.40
2018-03-27T10:28:24.335Z,66.94
2018-03-27T10:30:51.002Z,67.48
2018-03-27T10:33:17.624Z,67.50
2018-03-27T10:35:44.204Z,68.60
2018-03-27T10:38:10.986Z,68.56
2018-03-27T10:40:38.064Z,68.26
2018-03-27T10:43:04.830Z,68.85
2018-03-27T10:45:31.455Z,70.72
2018-03-27T10:47:58.842Z,68.86
2018-03-27T10:50:25.440Z,67.42
2018-03-27T10:52:52.108Z,66.06
2018-03-27T10:55:19.020Z,66.54
2018-03-27T10:57:46.053Z,67.41
2018-03-27T11:00:12.918Z,69.48
2018-03-27T11:02:40.468Z,68.33
2018-03-27T11:05:06.952Z,67.71
2018-03-27T11:07:34.058Z,66.85
2018-03-27T11:10:01.050Z,64.76
2018-03-27T11:12:27.807Z,67.30
2018-03-27T11:14:54.898Z,69.46
2018-03-27T11:17:21.495Z,70.72
2018-03-27T11:19:48.270Z,71.44
2018-03-27T11:22:14.961Z,69.78
2018-03-27T11:24:41.566Z,70.12
2018-03-27T11:27:08.113Z,69.31
2018-03-27T11:29:34.757Z,67.67
2018-03-27T11:32:01.457Z,68.52
2018-03-27T11:34:28.275Z,68.31
2018-03-27T11:36:54.853Z,66.13
2018-03-27T11:39:21.651Z,67.69
2018-03-27T11:41:48.632Z,66.11
2018-03-27T11:44:15.328Z,66.11
2018-03-27T11:46:42.065Z,65.95
2018-03-27T11:49:08.826Z,66.13
2018-03-27T11:51:35.484Z,66.59
2018-03-27T11:54:02.493Z,66.10
2018-03-27T11:56:29.415Z,65.51
2018-03-27T11:58:55.935Z,66.30
2018-03-27T12:01:23.057Z,64.42
2018-03-27T12:03:49.759Z,66.60
2018-03-27T12:06:16.842Z,66.72
2018-03-27T12:08:43.822Z,66.56
2018-03-27T12:11:10.326Z,65.69
2018-03-27T12:13:37.189Z,65.63
2018-03-27T12:16:03.982Z,64.47
2018-03-27T12:18:30.885Z,66.41
2018-03-27T12:20:57.695Z,66.32
2018-03-27T12:23:24.187Z,66.35
2018-03-27T12:25:50.674Z,64.84
2018-03-27T12:28:17.433Z,66.59
2018-03-27T12:30:44.767Z,67.03
2018-03-27T12:33:11.605Z,68.95
2018-03-27T12:35:38.448Z,67.79
2018-03-27T12:38:05.176Z,69.93
2018-03-27T12:40:31.627Z,69.43
2018-03-27T12:42:58.094Z,69.64
2018-03-27T12:45:24.663Z,67.87
2018-03-27T12:47:51.074Z,67.30
2018-03-27T12:50:17.827Z,67.77
2018-03-27T12:52:44.550Z,68.06
2018-03-27T12:55:11.239Z,67.11
2018-03-27T12:57:37.670Z,67.69
2018-03-27T13:00:04.129Z,66.80
2018-03-27T13:02:30.752Z,67.20
2018-03-27T13:04:57.303Z,65.93
2018-03-27T13:07:23.974Z,67.02
2018-03-27T13:09:50.603Z,66.70
2018-03-27T13:12:17.379Z,66.11
2018-03-27T13:14:44.111Z,65.93
2018-03-27T13:17:10.981Z,66.00
2018-03-27T13:19:37.472Z,64.83
2018-03-27T13:22:04.269Z,66.38
2018-03-27T13:24:31.082Z,67.61
2018-03-27T13:26:58.109Z,67.54
2018-03-27T13:29:24.636Z,67.19
2018-03-27T13:31:51.272Z,66.73
2018-03-27T13:34:17.820Z,67.25
2018-03-27T13:36:44.514Z,65.52
2018-03-27T13:39:11.236Z,64.90
2018-03-27T13:41:37.914Z,66.33
2018-03-27T13:44:04.704Z,66.65
2018-03-27T13:46:31.069Z,66.18
2018-03-27T13:48:57.681Z,68.73
2018-03-27T13:51:24.118Z,67.01
2018-03-27T13:53:50.862Z,66.60
2018-03-27T13:56:17.984Z,65.58
2018-03-27T13:58:44.777Z,65.61
2018-03-27T14:01:11.353Z,64.06
2018-03-27T14:03:38.006Z,67.88
2018-03-27T14:06:04.684Z,66.59
2018-03-27T14:08:31.438Z,68.19
2018-03-27T14:10:58.266Z,67.95
2018-03-27T14:13:24.772Z,67.66
2018-03-27T14:15:51.571Z,67.46
2018-03-27T14:18:18.361Z,68.01
2018-03-27T14:20:45.190Z,65.57
2018-03-27T14:23:11.655Z,63.74
2018-03-27T14:25:38.405Z,63.63
2018-03-27T14:28:04.926Z,64.84
2018-03-27T14:30:31.857Z,63.18
2018-03-27T14:32:58.478Z,62.24
2018-03-27T14:35:25.460Z,61.17
2018-03-27T14:37:52.185Z,62.19
2018-03-27T14:40:18.922Z,64.76
2018-03-27T14:42:45.787Z,65.28
2018-03-27T14:45:12.304Z,65.12
2018-03-27T14:47:39.062Z,63.81
2018-03-27T14:50:05.719Z,64.04
2018-03-27T14:52:32.961Z,63.21
2018-03-27T14:54:59.869Z,63.44
2018-03-27T14:57:27.607Z,64.49
2018-03-27T15:02:28.206Z,62.62
2018-03-27T15:04:54.930Z,64.44
2018-03-27T15:07:21.685Z,65.22
2018-03-27T15:09:52.077Z,63.80
2018-03-27T15:12:18.576Z,62.74
2018-03-27T15:14:45.268Z,65.47
2018-03-27T15:17:12.878Z,64.52
2018-03-27T15:19:39.638Z,64.62
2018-03-27T15:22:06.444Z,66.66
2018-03-27T15:24:33.239Z,65.09
2018-03-27T15:26:59.753Z,66.23
2018-03-27T15:29:26.428Z,65.35
2018-03-27T15:31:52.954Z,66.29
2018-03-27T15:34:19.555Z,65.71
2018-03-27T15:36:46.247Z,65.22
2018-03-27T15:39:12.698Z,65.05
2018-03-27T15:41:39.218Z,65.56
2018-03-27T15:44:05.731Z,65.98
2018-03-27T15:46:32.520Z,64.32
2018-03-27T15:48:59.033Z,63.58
2018-03-27T15:51:25.748Z,64.71
2018-03-27T15:53:52.289Z,66.49
2018-03-27T15:56:19.110Z,65.68
2018-03-27T15:58:45.810Z,64.15
2018-03-27T16:01:12.323Z,63.47
2018-03-27T16:03:39.083Z,62.43
2018-03-27T16:06:05.685Z,63.56
2018-03-27T16:08:32.289Z,64.25
2018-03-27T16:10:59.063Z,63.14
2018-03-27T16:13:26.131Z,63.81
2018-03-27T16:15:53.444Z,62.89
2018-03-27T16:18:20.488Z,65.24
2018-03-27T16:20:47.132Z,65.52
2018-03-27T16:23:13.739Z,65.49
2018-03-27T16:25:40.326Z,64.05
2018-03-27T16:28:07.028Z,63.05
2018-03-27T16:30:33.683Z,63.49
2018-03-27T16:33:00.400Z,65.89
2018-03-27T16:35:26.948Z,65.96
2018-03-27T16:37:53.682Z,64.32
2018-03-27T16:40:20.465Z,66.98
2018-03-27T16:42:47.239Z,64.80
2018-03-27T16:45:14.112Z,65.31
2018-03-27T16:47:41.014Z,65.63
2018-03-27T16:50:07.637Z,66.61
2018-03-27T16:52:34.168Z,65.36
2018-03-27T16:55:00.934Z,65.74
2018-03-27T16:57:27.527Z,66.72
2018-03-27T16:59:54.071Z,66.81
2018-03-27T17:02:20.659Z,67.35
2018-03-27T17:04:47.408Z,66.06
2018-03-27T17:07:14.069Z,66.70
2018-03-27T17:09:40.763Z,66.23
2018-03-27T17:12:07.517Z,65.95
2018-03-27T17:14:34.326Z,65.24
2018-03-27T17:17:00.962Z,66.34
2018-03-27T17:19:27.464Z,66.88
2018-03-27T17:21:54.010Z,68.82
2018-03-27T17:24:20.840Z,68.31
2018-03-27T17:26:47.370Z,67.39
2018-03-27T17:29:13.969Z,67.46
2018-03-27T17:31:40.421Z,66.40
2018-03-27T17:34:07.468Z,68.20
2018-03-27T17:36:34.259Z,67.75
2018-03-27T17:39:00.980Z,65.69
2018-03-27T17:41:27.534Z,64.35
2018-03-27T17:43:54.172Z,63.94
2018-03-27T17:46:21.116Z,63.92
2018-03-27T17:48:47.774Z,63.35
2018-03-27T17:51:14.420Z,66.50
2018-03-27T17:53:41.132Z,65.38
2018-03-27T17:56:07.950Z,64.17
2018-03-27T17:58:34.802Z,64.38
2018-03-27T18:01:01.580Z,66.34
2018-03-27T18:03:28.194Z,66.49
2018-03-27T18:05:55.136Z,64.52
2018-03-27T18:08:22.308Z,63.99
2018-03-27T18:10:49.654Z,64.34
2018-03-27T18:13:16.574Z,63.21
2018-03-27T18:15:43.142Z,62.53
2018-03-27T18:18:09.894Z,62.38
2018-03-27T18:20:38.438Z,62.87
2018-03-27T18:23:05.210Z,65.08
2018-03-27T18:25:31.823Z,65.49
2018-03-27T18:27:58.423Z,63.88
2018-03-27T18:30:25.072Z,63.23
2018-03-27T18:32:52.219Z,64.42
2018-03-27T18:35:18.688Z,63.75
2018-03-27T18:37:45.638Z,62.84
2018-03-27T18:40:12.455Z,63.60
2018-03-27T18:42:39.417Z,62.92
2018-03-27T18:45:06.261Z,62.55
2018-03-27T18:47:32.893Z,62.81
2018-03-27T18:49:59.524Z,62.40
2018-03-27T18:52:26.132Z,62.52
2018-03-27T18:54:52.606Z,62.35
2018-03-27T18:57:19.454Z,62.77
2018-03-27T18:59:45.971Z,62.73
2018-03-27T19:02:12.454Z,63.68
2018-03-27T19:04:44.703Z,62.64
2018-03-27T19:07:11.775Z,62.06
2018-03-27T19:09:38.361Z,61.65
2018-03-27T19:12:04.838Z,61.18
2018-03-27T19:14:31.530Z,61.26
2018-03-27T19:16:58.166Z,60.83
2018-03-27T19:19:24.787Z,60.61
2018-03-27T19:21:51.500Z,60.43
2018-03-27T19:24:18.995Z,60.44
2018-03-27T19:26:45.729Z,60.68
2018-03-27T19:29:12.102Z,60.95
2018-03-27T19:31:38.709Z,60.93
2018-03-27T19:34:05.394Z,60.32
2018-03-27T19:36:32.234Z,59.73
2018-03-27T19:38:58.710Z,59.67
2018-03-27T19:41:25.197Z,59.35
2018-03-27T19:43:51.688Z,58.88
2018-03-27T19:46:18.206Z,59.10
2018-03-27T19:48:44.811Z,58.81
2018-03-27T19:51:11.379Z,58.92
2018-03-27T19:53:38.044Z,58.50
2018-03-27T19:56:04.574Z,58.28
2018-03-27T19:58:31.103Z,58.23
2018-03-27T20:00:57.824Z,58.39
2018-03-27T20:03:24.380Z,58.32
2018-03-27T20:05:50.987Z,57.97
2018-03-27T20:08:17.599Z,57.97
2018-03-27T20:10:44.363Z,61.02
2018-03-27T20:13:10.928Z,59.75
2018-03-27T20:15:41.702Z,58.92
2018-03-27T20:18:04.442Z,58.77
2018-03-27T20:20:30.914Z,59.21
2018-03-27T20:22:57.460Z,58.85
2018-03-27T20:25:23.995Z,58.60
2018-03-27T20:27:50.418Z,59.55
2018-03-27T20:30:17.069Z,59.28
2018-03-27T20:32:43.617Z,59.62
2018-03-27T20:35:10.059Z,59.73
2018-03-27T20:37:36.671Z,59.35
2018-03-27T20:40:03.299Z,58.73
2018-03-27T20:42:30.052Z,58.23
2018-03-27T20:44:56.736Z,60.29
2018-03-27T20:49:46.317Z,59.25
2018-03-27T20:52:13.385Z,59.04
2018-03-27T20:54:39.959Z,59.22
2018-03-27T20:57:13.467Z,59.39
2018-03-27T20:59:40.294Z,58.55
2018-03-27T21:02:06.873Z,61.56
2018-03-27T21:04:33.548Z,62.51
2018-03-27T21:07:00.277Z,62.74
2018-03-27T21:09:26.817Z,61.58
2018-03-27T21:11:53.402Z,61.18
2018-03-27T21:14:19.934Z,62.16
2018-03-27T21:16:46.686Z,61.73
2018-03-27T21:19:13.426Z,59.97
2018-03-27T21:21:40.043Z,58.85
2018-03-27T21:24:06.588Z,58.56
2018-03-27T21:26:32.954Z,57.90
2018-03-27T21:28:59.473Z,57.82
2018-03-27T21:31:26.026Z,58.01
2018-03-27T21:33:52.509Z,58.63
2018-03-27T21:36:19.301Z,60.54
2018-03-27T21:38:45.737Z,59.64
2018-03-27T21:41:12.366Z,58.64
2018-03-27T21:43:38.737Z,58.62
2018-03-27T21:46:05.378Z,58.66
2018-03-27T21:48:31.921Z,59.07
2018-03-27T21:50:58.556Z,57.73
2018-03-27T21:53:25.265Z,57.91
2018-03-27T21:55:51.934Z,57.86
2018-03-27T21:58:18.814Z,57.72
2018-03-27T22:00:45.345Z,58.99
2018-03-27T22:03:12.171Z,58.46
2018-03-27T22:05:38.804Z,59.06
2018-03-27T22:08:05.262Z,57.69
2018-03-27T22:10:31.640Z,57.34
2018-03-27T22:12:58.234Z,56.72
2018-03-27T22:15:24.687Z,56.23
2018-03-27T22:17:51.255Z,58.30
2018-03-27T22:20:18.297Z,58.32
2018-03-27T22:22:45.018Z,57.66
2018-03-27T22:25:11.676Z,57.70
2018-03-27T22:27:38.142Z,58.24
2018-03-27T22:30:04.722Z,59.08
2018-03-27T22:32:31.298Z,58.24
2018-03-27T22:34:58.050Z,57.80
2018-03-27T22:37:24.784Z,59.46
2018-03-27T22:39:51.597Z,58.61
2018-03-27T22:42:18.258Z,60.12
2018-03-27T22:44:44.971Z,59.87
2018-03-27T22:47:11.451Z,59.87
2018-03-27T22:49:38.185Z,62.48
2018-03-27T22:52:04.910Z,63.42
2018-03-27T22:54:31.416Z,62.55
2018-03-27T22:56:58.166Z,64.43
2018-03-27T22:59:24.735Z,62.79
2018-03-27T23:01:51.286Z,63.17
2018-03-27T23:04:18.072Z,63.04
2018-03-27T23:06:44.643Z,63.18
2018-03-27T23:09:11.261Z,61.89
2018-03-27T23:11:37.784Z,61.74
2018-03-27T23:14:04.194Z,61.66
2018-03-27T23:16:30.587Z,66.00
2018-03-27T23:18:57.159Z,66.23
2018-03-27T23:21:23.963Z,64.29
2018-03-27T23:23:50.578Z,63.34
2018-03-27T23:26:17.194Z,62.95
2018-03-27T23:28:43.661Z,62.74
2018-03-27T23:31:10.267Z,62.24
2018-03-27T23:33:36.813Z,61.85
2018-03-27T23:36:03.521Z,62.09
2018-03-27T23:38:30.138Z,62.07
2018-03-27T23:40:56.752Z,62.28
2018-03-27T23:43:23.369Z,62.14
2018-03-27T23:45:49.866Z,62.34
2018-03-27T23:48:16.364Z,63.72
2018-03-27T23:50:42.721Z,63.37
2018-03-27T23:53:09.092Z,63.01
2018-03-27T23:55:35.705Z,63.05
2018-03-27T23:58:02.272Z,62.79
